Terminal Aerodrome Forecast
Issued by NWS

Home | Current Version | Previous Version | Text Only | Print | Product List | Glossary On
Versions: 1 2 3 4 5 6 7 8 9 10 11 12 13 14 15 16 17 18 19
000
FTUS45 KTFX 172341
TAFGTF
TAF
KGTF 172341Z 1800/1824 21011KT P6SM SCT200
     FM180800 24011KT P6SM SCT070 BKN120
     FM181100 34013G25KT P6SM VCSH SCT030 OVC050 PROB30 1812/1818
      -SHRA BKN025
     FM182000 35011KT P6SM SCT035 OVC060=

USA.gov is the U.S. government's official web portal to all federal, state and local government web resources and services.